Time;durP1;ratioP1;P1;durP2;ratioP2;P2;SDS_P1;SDS_P2;PMS_P1;PMS_P2;Temp;Humidity;BMP_temperature;BMP_pressure;BME280_temperature;BME280_humidity;BME280_pressure;Samples;Min_cycle;Max_cycle;Signal;HPM_P1;HPM_P2
2022/05/14 00:02:09;;;;;;;7.97;5.47;;;14.30;1.00;;;;;;5070449;28;20450;-84
2022/05/14 00:04:38;;;;;;;9.10;5.40;;;14.20;1.00;;;;;;5072758;28;20477;-86
2022/05/14 00:07:04;;;;;;;5.97;5.40;;;14.20;1.00;;;;;;5069430;28;20439;-81
2022/05/14 00:09:32;;;;;;;6.03;5.07;;;14.20;1.00;;;;;;5071302;28;20534;-85
2022/05/14 00:14:44;;;;;;;5.90;4.93;;;14.10;1.00;;;;;;5065864;28;20831;-86
2022/05/14 00:17:10;;;;;;;6.57;5.97;;;14.10;1.00;;;;;;5072144;28;20461;-85
2022/05/14 00:19:37;;;;;;;8.63;5.40;;;14.10;1.00;;;;;;5068180;28;20457;-82
2022/05/14 00:22:04;;;;;;;8.40;6.13;;;14.00;1.00;;;;;;5069406;28;20458;-84
2022/05/14 00:24:32;;;;;;;6.37;5.43;;;14.00;1.00;;;;;;5070956;28;20511;-84
2022/05/14 00:26:59;;;;;;;7.80;6.50;;;14.00;1.00;;;;;;5069258;28;20461;-83
2022/05/14 00:29:27;;;;;;;7.20;5.53;;;13.90;1.00;;;;;;5071022;28;20467;-84
2022/05/14 00:31:54;;;;;;;8.10;5.67;;;13.90;1.00;;;;;;5072305;28;20457;-83
2022/05/14 00:34:21;;;;;;;7.53;5.50;;;13.90;1.00;;;;;;5070234;28;20470;-84
2022/05/14 00:36:47;;;;;;;6.30;5.70;;;13.90;1.00;;;;;;5070096;28;20515;-86
2022/05/14 00:39:14;;;;;;;7.20;5.80;;;13.90;1.00;;;;;;5071768;28;21025;-85
2022/05/14 00:41:49;;;;;;;6.33;5.40;;;13.80;1.00;;;;;;5072662;28;20502;-86
2022/05/14 00:44:15;;;;;;;10.90;6.33;;;13.80;1.00;;;;;;5071602;28;20472;-85
2022/05/14 00:46:48;;;;;;;8.77;5.33;;;13.80;1.00;;;;;;5069654;28;20528;-85
2022/05/14 00:49:19;;;;;;;7.63;5.80;;;13.70;1.00;;;;;;5071193;28;20438;-86
2022/05/14 00:51:46;;;;;;;7.93;5.27;;;13.60;1.00;;;;;;5068763;28;20533;-84
2022/05/14 00:54:17;;;;;;;7.93;6.23;;;13.60;1.00;;;;;;5071318;28;20537;-84
2022/05/14 00:56:49;;;;;;;6.10;5.50;;;13.50;1.00;;;;;;5070181;28;20591;-84
2022/05/14 00:59:19;;;;;;;6.33;5.60;;;13.50;1.00;;;;;;5063994;28;20524;-84
2022/05/14 01:01:48;;;;;;;6.80;5.60;;;13.50;1.00;;;;;;5071009;28;20503;-85
2022/05/14 01:04:16;;;;;;;9.37;6.07;;;13.50;1.00;;;;;;5069901;28;20551;-85
2022/05/14 01:06:49;;;;;;;7.30;6.30;;;13.60;1.00;;;;;;5073638;28;20495;-82
2022/05/14 01:09:16;;;;;;;8.03;6.33;;;13.70;1.00;;;;;;5073450;28;20436;-85
2022/05/14 01:11:43;;;;;;;7.37;5.57;;;13.80;1.00;;;;;;5069537;28;20618;-85
2022/05/14 01:14:12;;;;;;;7.03;6.13;;;13.80;1.00;;;;;;5070407;28;20461;-84
2022/05/14 01:16:40;;;;;;;6.57;5.87;;;13.90;1.00;;;;;;5072179;28;20460;-85
2022/05/14 01:19:07;;;;;;;7.37;6.20;;;13.90;1.00;;;;;;5068863;28;20460;-85
2022/05/14 01:21:41;;;;;;;6.77;6.17;;;13.90;1.00;;;;;;5071674;28;20791;-85
2022/05/14 01:27:00;;;;;;;7.70;5.47;;;13.90;1.00;;;;;;5072527;28;20457;-85
2022/05/14 01:29:27;;;;;;;9.00;6.60;;;14.00;1.00;;;;;;5070218;28;20460;-86
2022/05/14 01:31:56;;;;;;;9.33;6.33;;;13.90;1.00;;;;;;5070440;28;20521;-84
2022/05/14 01:34:26;;;;;;;7.17;5.97;;;13.90;1.00;;;;;;5069431;28;20487;-81
2022/05/14 01:36:53;;;;;;;7.13;5.93;;;13.90;1.00;;;;;;5069799;28;21103;-83
2022/05/14 01:39:19;;;;;;;6.37;5.70;;;13.90;1.00;;;;;;5072068;28;20479;-87
2022/05/14 01:41:46;;;;;;;6.73;6.13;;;13.90;1.00;;;;;;5068708;28;21005;-83
2022/05/14 01:44:15;;;;;;;7.80;5.90;;;13.90;1.00;;;;;;5071961;28;20529;-83
2022/05/14 01:46:43;;;;;;;7.17;6.47;;;14.00;1.00;;;;;;5066680;28;20457;-84
2022/05/14 01:49:10;;;;;;;5.87;5.27;;;14.10;1.00;;;;;;5069950;28;20448;-85
2022/05/14 01:51:36;;;;;;;8.10;5.43;;;14.10;1.00;;;;;;5070915;28;20464;-84
2022/05/14 01:54:05;;;;;;;8.17;6.20;;;14.20;1.00;;;;;;5068032;28;20484;-84
2022/05/14 01:56:33;;;;;;;6.37;5.77;;;14.20;1.00;;;;;;5071912;28;20470;-86
2022/05/14 01:58:59;;;;;;;7.67;5.10;;;14.20;1.00;;;;;;5069457;28;20480;-84
2022/05/14 02:01:30;;;;;;;7.20;6.50;;;14.30;1.00;;;;;;5072730;28;20559;-83
2022/05/14 02:03:58;;;;;;;7.37;6.67;;;14.30;1.00;;;;;;5069365;28;20466;-85
2022/05/14 02:06:27;;;;;;;10.07;5.93;;;14.30;1.00;;;;;;5073107;28;20528;-85
2022/05/14 02:08:54;;;;;;;10.00;6.10;;;14.30;1.00;;;;;;5071615;28;20447;-84
2022/05/14 02:11:21;;;;;;;7.07;6.37;;;14.30;1.00;;;;;;5070797;28;20434;-84
2022/05/14 02:13:50;;;;;;;8.60;6.30;;;14.40;1.00;;;;;;5068404;28;20406;-83
2022/05/14 02:16:16;;;;;;;6.40;5.70;;;14.40;1.00;;;;;;5071806;28;21115;-85
2022/05/14 02:18:45;;;;;;;8.67;6.17;;;14.40;1.00;;;;;;5072408;28;21797;-82
2022/05/14 02:21:12;;;;;;;7.23;5.90;;;14.30;1.00;;;;;;5068890;28;20430;-84
2022/05/14 02:23:42;;;;;;;10.23;5.70;;;14.30;1.00;;;;;;5068810;28;20472;-83
2022/05/14 02:26:12;;;;;;;7.40;5.63;;;14.30;1.00;;;;;;5072166;28;20511;-84
2022/05/14 02:28:39;;;;;;;8.10;5.63;;;14.30;1.00;;;;;;5064442;28;20488;-85
2022/05/14 02:31:06;;;;;;;7.47;5.70;;;14.40;1.00;;;;;;5072047;28;20490;-85
2022/05/14 02:33:33;;;;;;;7.60;5.50;;;14.40;1.00;;;;;;5071843;28;20563;-85
2022/05/14 02:36:01;;;;;;;7.90;5.20;;;14.50;1.00;;;;;;5072422;28;20465;-85
2022/05/14 02:38:30;;;;;;;8.20;5.20;;;14.50;1.00;;;;;;5074403;28;20453;-84
2022/05/14 02:40:57;;;;;;;6.70;5.60;;;14.50;1.00;;;;;;5071396;28;20470;-82
2022/05/14 02:43:24;;;;;;;5.90;4.77;;;14.50;1.00;;;;;;5074625;28;20430;-84
2022/05/14 02:45:51;;;;;;;7.70;5.37;;;14.50;1.00;;;;;;5075043;28;20528;-83
2022/05/14 02:48:18;;;;;;;8.90;5.63;;;14.50;1.00;;;;;;5074444;28;20487;-85
2022/05/14 02:50:44;;;;;;;6.83;4.93;;;14.50;1.00;;;;;;5073981;28;20456;-83
2022/05/14 02:53:13;;;;;;;8.97;4.60;;;14.50;1.00;;;;;;5072703;28;21023;-84
2022/05/14 02:55:39;;;;;;;6.43;4.50;;;14.50;1.00;;;;;;5074597;28;20473;-85
2022/05/14 02:58:06;;;;;;;8.00;4.77;;;14.50;1.00;;;;;;5075470;28;20449;-84
2022/05/14 03:00:33;;;;;;;8.43;4.87;;;14.50;1.00;;;;;;5075285;28;20547;-82
2022/05/14 03:02:59;;;;;;;6.13;4.73;;;14.40;1.00;;;;;;5072317;28;20481;-84
2022/05/14 03:05:27;;;;;;;8.17;5.10;;;14.40;1.00;;;;;;5076859;28;20488;-84
2022/05/14 03:07:56;;;;;;;8.97;4.67;;;14.40;1.00;;;;;;5069667;28;20446;-84
2022/05/14 03:10:24;;;;;;;5.63;3.90;;;14.40;1.00;;;;;;5076866;28;20430;-84
2022/05/14 03:12:51;;;;;;;5.07;4.50;;;14.40;1.00;;;;;;5071409;28;20470;-82
2022/05/14 03:15:18;;;;;;;6.73;4.50;;;14.40;1.00;;;;;;5075303;28;20472;-85
2022/05/14 03:17:45;;;;;;;7.17;4.77;;;14.40;1.00;;;;;;5074464;28;20508;-80
2022/05/14 03:20:13;;;;;;;9.83;4.93;;;14.30;1.00;;;;;;5077155;28;20462;-84
2022/05/14 03:22:41;;;;;;;9.67;4.90;;;14.20;1.00;;;;;;5075356;28;20493;-84
2022/05/14 03:25:09;;;;;;;6.57;5.03;;;14.20;1.00;;;;;;5076763;28;20890;-84
2022/05/14 03:27:37;;;;;;;8.60;4.37;;;14.10;1.00;;;;;;5073998;28;20462;-84
2022/05/14 03:30:05;;;;;;;6.70;4.30;;;14.10;1.00;;;;;;5074697;28;20436;-84
2022/05/14 03:32:32;;;;;;;7.73;4.70;;;14.00;1.00;;;;;;5074804;28;20490;-85
2022/05/14 03:35:00;;;;;;;7.57;4.80;;;14.00;1.00;;;;;;5074614;28;20522;-82
2022/05/14 03:37:27;;;;;;;8.23;4.50;;;14.00;1.00;;;;;;5078451;28;20544;-82
2022/05/14 03:39:54;;;;;;;5.83;4.50;;;13.90;1.00;;;;;;5076967;28;20421;-84
2022/05/14 03:42:21;;;;;;;7.40;4.70;;;13.90;1.00;;;;;;5074960;28;20547;-85
2022/05/14 03:44:49;;;;;;;5.50;4.33;;;13.80;1.00;;;;;;5076526;28;20512;-84
2022/05/14 03:47:16;;;;;;;11.40;5.10;;;13.80;1.00;;;;;;5071659;28;20437;-84
2022/05/14 03:49:43;;;;;;;9.70;5.63;;;13.80;1.00;;;;;;5075481;28;20585;-84
2022/05/14 03:52:10;;;;;;;7.83;4.90;;;13.80;1.00;;;;;;5070768;28;20433;-84
2022/05/14 03:54:38;;;;;;;9.33;5.03;;;13.70;1.00;;;;;;5069459;28;20523;-85
2022/05/14 03:57:06;;;;;;;5.60;4.40;;;13.70;1.00;;;;;;5074234;28;20882;-84
2022/05/14 03:59:34;;;;;;;6.73;4.97;;;13.70;1.00;;;;;;5074550;28;20736;-85
2022/05/14 04:02:03;;;;;;;7.13;5.10;;;13.70;1.00;;;;;;5069428;28;20475;-81
2022/05/14 04:04:30;;;;;;;6.43;4.90;;;13.70;1.00;;;;;;5069110;28;20449;-81
2022/05/14 04:06:57;;;;;;;7.73;4.90;;;13.70;1.00;;;;;;5070156;28;20467;-82
2022/05/14 04:09:25;;;;;;;5.03;4.53;;;13.70;1.00;;;;;;5078087;28;20441;-84
2022/05/14 04:11:53;;;;;;;8.47;5.37;;;13.60;1.00;;;;;;5075817;28;20883;-86
2022/05/14 04:14:20;;;;;;;7.80;4.13;;;13.60;1.00;;;;;;5074798;28;20956;-85
2022/05/14 04:16:46;;;;;;;7.67;5.20;;;13.60;1.00;;;;;;5072015;28;20460;-86
2022/05/14 04:19:15;;;;;;;9.37;5.10;;;13.60;1.00;;;;;;5074754;28;20511;-85
2022/05/14 04:21:42;;;;;;;9.00;5.53;;;13.60;1.00;;;;;;5074334;28;20477;-84
2022/05/14 04:24:09;;;;;;;7.30;4.93;;;13.60;1.00;;;;;;5080877;28;20473;-84
2022/05/14 04:26:35;;;;;;;6.57;5.30;;;13.60;1.00;;;;;;5073104;28;20525;-80
2022/05/14 04:29:02;;;;;;;6.40;4.80;;;13.60;1.00;;;;;;5070208;28;20459;-86
2022/05/14 04:31:28;;;;;;;10.13;5.40;;;13.60;1.00;;;;;;5072955;28;20484;-82
2022/05/14 04:33:55;;;;;;;6.97;6.10;;;13.60;1.00;;;;;;5070651;28;20511;-85
2022/05/14 04:36:23;;;;;;;7.50;5.60;;;13.60;1.00;;;;;;5072252;28;20452;-83
2022/05/14 04:38:50;;;;;;;7.13;5.23;;;13.60;1.00;;;;;;5075582;28;20523;-83
2022/05/14 04:41:17;;;;;;;5.27;4.77;;;13.70;1.00;;;;;;5076036;28;20956;-84
2022/05/14 04:43:47;;;;;;;7.07;4.67;;;13.70;1.00;;;;;;5076041;28;20462;-84
2022/05/14 04:46:14;;;;;;;7.77;6.03;;;13.70;1.00;;;;;;5075544;28;20446;-82
2022/05/14 04:48:40;;;;;;;6.50;5.10;;;13.70;1.00;;;;;;5073175;28;20542;-81
2022/05/14 04:51:07;;;;;;;6.00;5.00;;;13.70;1.00;;;;;;5071389;28;20579;-82
2022/05/14 04:53:35;;;;;;;6.73;4.90;;;13.80;1.00;;;;;;5072621;28;20609;-82
2022/05/14 04:56:01;;;;;;;9.67;4.97;;;13.80;1.00;;;;;;5071026;28;20478;-83
2022/05/14 04:58:28;;;;;;;7.73;5.50;;;13.80;1.00;;;;;;5075527;28;20998;-83
2022/05/14 05:00:56;;;;;;;7.13;5.30;;;13.90;1.00;;;;;;5072250;28;20473;-84
2022/05/14 05:03:21;;;;;;;8.30;4.90;;;13.90;1.00;;;;;;5071815;28;20449;-83
2022/05/14 05:05:50;;;;;;;6.33;5.20;;;13.90;1.00;;;;;;5071891;28;20464;-85
2022/05/14 05:08:17;;;;;;;7.50;4.70;;;14.00;1.00;;;;;;5071408;28;20771;-82
2022/05/14 05:10:47;;;;;;;7.77;5.10;;;14.00;1.00;;;;;;5071227;28;20455;-83
2022/05/14 05:13:16;;;;;;;6.60;4.63;;;14.10;1.00;;;;;;5070482;28;20522;-82
2022/05/14 05:15:44;;;;;;;7.50;5.37;;;14.20;1.00;;;;;;5069163;28;20449;-84
2022/05/14 05:18:12;;;;;;;9.33;5.30;;;14.20;1.00;;;;;;5070019;28;20547;-85
2022/05/14 05:20:41;;;;;;;6.53;4.77;;;14.30;1.00;;;;;;5073175;28;20462;-85
2022/05/14 05:23:12;;;;;;;6.97;4.90;;;14.40;1.00;;;;;;5072340;28;20589;-83
2022/05/14 05:25:39;;;;;;;9.37;4.50;;;14.40;1.00;;;;;;5067140;28;20462;-84
2022/05/14 05:28:07;;;;;;;6.03;5.20;;;14.50;1.00;;;;;;5073729;28;20478;-84
2022/05/14 05:30:35;;;;;;;10.20;6.07;;;14.50;1.00;;;;;;5074467;28;20524;-84
2022/05/14 05:33:02;;;;;;;7.00;5.00;;;14.60;1.00;;;;;;5070531;28;20465;-84
2022/05/14 05:35:29;;;;;;;8.60;4.70;;;14.60;1.00;;;;;;5069346;28;20461;-84
2022/05/14 05:37:56;;;;;;;6.03;4.00;;;14.70;1.00;;;;;;5073736;28;20503;-85
2022/05/14 05:40:22;;;;;;;6.90;4.50;;;14.80;1.00;;;;;;5069573;28;21230;-84
2022/05/14 05:42:50;;;;;;;10.53;5.10;;;14.80;1.00;;;;;;5073315;28;20901;-84
2022/05/14 05:45:19;;;;;;;8.53;5.30;;;14.90;1.00;;;;;;5072066;28;20495;-84
2022/05/14 05:47:46;;;;;;;12.77;5.30;;;15.00;1.00;;;;;;5070497;28;20451;-83
2022/05/14 05:50:15;;;;;;;8.60;4.83;;;15.10;1.00;;;;;;5072954;28;20446;-83
2022/05/14 05:52:41;;;;;;;7.63;4.97;;;15.10;1.00;;;;;;5069413;28;20502;-84
2022/05/14 05:57:53;;;;;;;9.37;4.87;;;15.30;1.00;;;;;;5068736;28;20438;-84
2022/05/14 06:00:24;;;;;;;11.43;4.20;;;15.50;1.00;;;;;;5073620;28;20509;-84
2022/05/14 06:02:51;;;;;;;9.10;4.43;;;15.40;1.00;;;;;;5070840;28;20455;-81
2022/05/14 06:05:18;;;;;;;10.47;4.30;;;15.50;1.00;;;;;;5072681;28;20471;-86
2022/05/14 06:07:45;;;;;;;8.27;4.87;;;15.50;1.00;;;;;;5072757;28;20914;-83
2022/05/14 06:10:15;;;;;;;5.87;3.90;;;15.50;1.00;;;;;;5074194;28;20470;-84
2022/05/14 06:12:42;;;;;;;8.77;4.10;;;15.70;1.00;;;;;;5077757;28;20512;-83
2022/05/14 06:15:12;;;;;;;9.67;4.07;;;15.90;1.00;;;;;;5075925;28;20497;-84
2022/05/14 06:17:40;;;;;;;7.20;3.73;;;16.10;1.00;;;;;;5073276;28;20462;-83
2022/05/14 06:20:11;;;;;;;9.47;4.17;;;16.30;1.00;;;;;;5075644;28;20439;-85
2022/05/14 06:22:38;;;;;;;5.70;3.70;;;16.40;1.00;;;;;;5074298;28;20482;-83
2022/05/14 06:25:06;;;;;;;7.83;4.00;;;16.40;1.00;;;;;;5077899;28;20457;-82
2022/05/14 06:27:32;;;;;;;5.90;3.40;;;16.40;1.00;;;;;;5076159;28;20522;-85
2022/05/14 06:29:59;;;;;;;8.47;4.13;;;16.30;1.00;;;;;;5077621;28;20439;-81
2022/05/14 06:32:27;;;;;;;10.33;6.30;;;16.20;1.00;;;;;;5079694;28;20515;-82
2022/05/14 06:34:55;;;;;;;8.60;4.00;;;16.20;1.00;;;;;;5077585;28;20471;-82
2022/05/14 06:37:21;;;;;;;8.27;4.00;;;16.20;1.00;;;;;;5079015;28;20431;-85
2022/05/14 06:39:48;;;;;;;9.17;4.67;;;16.30;1.00;;;;;;5073867;28;20416;-84
2022/05/14 06:42:15;;;;;;;8.70;4.20;;;16.40;1.00;;;;;;5076895;28;20495;-82
2022/05/14 06:44:42;;;;;;;8.47;4.10;;;16.40;1.00;;;;;;5075079;28;20472;-84
2022/05/14 06:47:08;;;;;;;9.20;4.33;;;16.50;1.00;;;;;;5074769;28;20463;-81
2022/05/14 06:49:35;;;;;;;7.70;4.43;;;16.60;1.00;;;;;;5070143;28;20586;-81
2022/05/14 06:52:06;;;;;;;6.90;3.87;;;16.80;1.00;;;;;;5071460;28;20482;-84
2022/05/14 06:54:35;;;;;;;9.83;4.63;;;16.90;1.00;;;;;;5073715;28;20482;-84
2022/05/14 06:57:04;;;;;;;7.53;4.10;;;16.90;1.00;;;;;;5068081;28;20471;-82
2022/05/14 06:59:32;;;;;;;7.00;3.40;;;16.90;1.00;;;;;;5074802;28;20503;-82
2022/05/14 07:01:59;;;;;;;10.37;5.00;;;17.00;1.00;;;;;;5074792;28;20532;-84
2022/05/14 07:07:12;;;;;;;9.37;4.37;;;17.10;1.00;;;;;;5070448;28;21265;-83
2022/05/14 07:09:39;;;;;;;9.23;4.70;;;17.40;1.00;;;;;;5071612;28;20589;-81
2022/05/14 07:12:09;;;;;;;8.57;4.47;;;17.50;1.00;;;;;;5072543;28;20575;-81
2022/05/14 07:14:37;;;;;;;9.73;5.03;;;17.60;1.00;;;;;;5074546;28;20463;-83
2022/05/14 07:17:06;;;;;;;8.90;4.27;;;17.50;1.00;;;;;;5074785;28;21328;-85
2022/05/14 07:19:33;;;;;;;10.30;4.17;;;17.40;1.00;;;;;;5071436;28;20928;-84
2022/05/14 07:22:00;;;;;;;9.53;4.10;;;17.30;1.00;;;;;;5071706;28;20477;-83
2022/05/14 07:24:30;;;;;;;9.60;4.60;;;17.40;1.00;;;;;;5075305;28;20457;-83
2022/05/14 07:27:01;;;;;;;6.40;4.00;;;17.30;1.00;;;;;;5073158;28;20548;-83
2022/05/14 07:29:29;;;;;;;10.30;5.70;;;17.30;1.00;;;;;;5073493;28;20545;-83
2022/05/14 07:31:58;;;;;;;9.33;4.20;;;17.40;1.00;;;;;;5074086;28;20467;-84
2022/05/14 07:34:26;;;;;;;7.47;4.67;;;17.60;1.00;;;;;;5072785;28;20567;-83
2022/05/14 07:36:58;;;;;;;10.60;4.83;;;17.90;1.00;;;;;;5073651;28;20411;-83
2022/05/14 07:39:29;;;;;;;10.83;4.90;;;18.20;1.00;;;;;;5073865;28;20447;-84
2022/05/14 07:42:00;;;;;;;6.40;3.90;;;18.40;1.00;;;;;;5072403;28;20478;-83
2022/05/14 07:44:30;;;;;;;8.50;4.53;;;18.60;1.00;;;;;;5074006;28;20526;-83
2022/05/14 07:46:58;;;;;;;7.87;4.57;;;18.70;1.00;;;;;;5070786;28;20428;-83
2022/05/14 07:49:27;;;;;;;8.30;4.03;;;18.80;1.00;;;;;;5072362;28;20443;-85
2022/05/14 07:51:56;;;;;;;7.10;4.30;;;19.00;1.00;;;;;;5070073;28;20509;-82
2022/05/14 07:54:25;;;;;;;9.77;4.97;;;19.10;1.00;;;;;;5070422;28;21400;-82
2022/05/14 07:56:55;;;;;;;11.80;4.50;;;19.10;1.00;;;;;;5074281;28;20611;-82
2022/05/14 07:59:22;;;;;;;9.30;4.80;;;18.90;1.00;;;;;;5071506;28;20459;-82
2022/05/14 08:01:49;;;;;;;9.37;4.80;;;18.80;1.00;;;;;;5071931;28;20444;-83
2022/05/14 08:04:16;;;;;;;11.90;5.57;;;18.90;1.00;;;;;;5074760;28;21005;-85
2022/05/14 08:06:42;;;;;;;9.03;4.90;;;18.90;1.00;;;;;;5076278;28;21759;-84
2022/05/14 08:09:09;;;;;;;10.97;4.97;;;18.90;1.00;;;;;;5074526;28;20447;-83
2022/05/14 08:11:36;;;;;;;8.23;4.70;;;18.90;1.00;;;;;;5075914;28;20471;-85
2022/05/14 08:14:04;;;;;;;9.70;4.80;;;19.10;1.00;;;;;;5075691;28;21263;-84
2022/05/14 08:16:31;;;;;;;8.07;4.90;;;19.30;1.00;;;;;;5073481;28;20957;-84
2022/05/14 08:18:57;;;;;;;11.30;4.50;;;19.50;1.00;;;;;;5071910;28;20583;-84
2022/05/14 08:26:56;;;;;;;11.47;4.30;;;19.90;1.00;;;;;;5073273;28;20447;-83
2022/05/14 08:29:27;;;;;;;7.33;4.93;;;20.00;1.00;;;;;;5073865;28;20503;-82
2022/05/14 08:31:53;;;;;;;9.17;4.50;;;20.00;1.00;;;;;;5074792;28;21322;-81
2022/05/14 08:34:21;;;;;;;8.07;4.13;;;20.10;1.00;;;;;;5072992;28;20459;-83
2022/05/14 08:36:48;;;;;;;10.70;4.90;;;20.00;1.00;;;;;;5072137;28;20506;-84
2022/05/14 08:39:17;;;;;;;8.10;4.37;;;19.90;1.00;;;;;;5077084;28;20511;-84
2022/05/14 08:41:48;;;;;;;13.77;4.97;;;20.00;1.00;;;;;;5073457;28;20469;-83
2022/05/14 08:44:19;;;;;;;10.40;3.87;;;20.00;1.00;;;;;;5071838;28;20463;-85
2022/05/14 08:46:53;;;;;;;8.97;4.43;;;20.10;1.00;;;;;;5070003;28;20471;-84
2022/05/14 08:49:25;;;;;;;9.00;4.83;;;20.30;1.00;;;;;;5069876;28;20463;-85
2022/05/14 08:51:53;;;;;;;9.43;5.10;;;20.40;1.00;;;;;;5070302;28;20540;-85
2022/05/14 08:54:20;;;;;;;7.10;4.63;;;20.40;1.00;;;;;;5071068;28;20574;-84
2022/05/14 08:56:56;;;;;;;9.00;4.70;;;20.40;1.00;;;;;;5072932;28;20416;-85
2022/05/14 08:59:55;;;;;;;10.87;4.30;;;20.80;1.00;;;;;;5070807;28;20576;-84
2022/05/14 09:02:32;;;;;;;12.40;4.67;;;21.00;1.00;;;;;;5055128;28;20467;-83
2022/05/14 09:05:02;;;;;;;7.13;3.70;;;21.20;1.00;;;;;;5072793;28;20787;-83
2022/05/14 09:07:30;;;;;;;9.93;4.23;;;21.30;1.00;;;;;;5070239;28;20928;-84
2022/05/14 09:09:58;;;;;;;9.30;4.40;;;21.40;1.00;;;;;;5072643;28;20459;-85
2022/05/14 09:12:28;;;;;;;8.70;4.23;;;21.40;1.00;;;;;;5078573;28;21047;-88
2022/05/14 09:14:58;;;;;;;17.20;4.10;;;21.30;1.00;;;;;;5078866;28;20444;-86
2022/05/14 09:17:32;;;;;;;10.47;4.43;;;21.10;1.00;;;;;;5077258;28;20412;-88
2022/05/14 09:20:01;;;;;;;7.10;3.83;;;20.90;1.00;;;;;;5079115;28;20462;-86
2022/05/14 09:22:41;;;;;;;9.80;4.30;;;20.60;1.00;;;;;;5081506;28;20432;-81
2022/05/14 09:25:22;;;;;;;8.87;4.03;;;20.50;1.00;;;;;;5084557;28;20430;-87
2022/05/14 09:27:54;;;;;;;8.57;4.43;;;20.60;1.00;;;;;;5080191;28;20447;-84
2022/05/14 09:30:34;;;;;;;7.23;3.80;;;21.20;1.00;;;;;;5079105;28;20423;-86
2022/05/14 09:33:02;;;;;;;10.10;4.40;;;22.20;1.00;;;;;;5078332;28;20422;-87
2022/05/14 09:35:33;;;;;;;9.13;3.67;;;22.10;1.00;;;;;;5077889;28;20445;-84
2022/05/14 09:38:11;;;;;;;9.90;3.33;;;21.60;1.00;;;;;;5077849;28;20427;-88
2022/05/14 09:40:38;;;;;;;13.27;4.53;;;21.40;1.00;;;;;;5077332;28;20509;-87
2022/05/14 09:43:13;;;;;;;8.80;3.60;;;21.00;1.00;;;;;;5081517;28;20459;-91
2022/05/14 09:45:42;;;;;;;7.93;3.50;;;20.70;1.00;;;;;;5070601;28;20516;-83
2022/05/14 09:48:15;;;;;;;10.47;4.07;;;21.30;1.00;;;;;;5072051;28;20444;-85
2022/05/14 09:50:44;;;;;;;13.17;4.40;;;21.80;1.00;;;;;;5069994;28;20554;-84
2022/05/14 09:53:11;;;;;;;11.43;3.67;;;21.70;1.00;;;;;;5069755;28;20474;-86
2022/05/14 09:55:57;;;;;;;8.90;3.60;;;23.10;1.00;;;;;;5073960;28;20548;-86
2022/05/14 09:58:38;;;;;;;11.13;4.00;;;23.50;1.00;;;;;;5071130;28;20447;-86
2022/05/14 10:01:11;;;;;;;12.60;4.60;;;23.70;1.00;;;;;;5072673;28;20455;-86
2022/05/14 10:03:56;;;;;;;9.33;3.80;;;23.20;1.00;;;;;;5072792;28;20873;-84
2022/05/14 10:06:33;;;;;;;11.52;4.70;;;23.60;1.00;;;;;;5070728;28;20895;-82
2022/05/14 10:09:24;;;;;;;14.23;4.20;;;23.20;1.00;;;;;;5069071;28;21026;-83
2022/05/14 10:12:01;;;;;;;9.73;4.03;;;22.60;1.00;;;;;;5072160;28;20882;-82
2022/05/14 10:14:42;;;;;;;9.90;3.40;;;22.00;1.00;;;;;;5071118;28;20461;-83
2022/05/14 10:17:22;;;;;;;9.40;4.23;;;21.80;1.00;;;;;;5074034;28;20434;-83
2022/05/14 10:20:15;;;;;;;9.37;3.37;;;22.50;1.00;;;;;;5071453;28;20530;-82
2022/05/14 10:28:41;;;;;;;9.47;3.80;;;21.50;1.00;;;;;;5075490;28;20451;-83
2022/05/14 10:31:15;;;;;;;10.80;3.63;;;21.60;1.00;;;;;;5069387;28;20411;-86
2022/05/14 10:33:42;;;;;;;10.73;4.00;;;21.60;1.00;;;;;;5074137;28;20471;-85
2022/05/14 10:36:21;;;;;;;11.50;4.53;;;22.10;1.00;;;;;;5075028;28;20459;-85
2022/05/14 10:38:53;;;;;;;10.13;3.70;;;22.40;1.00;;;;;;5076103;28;21169;-82
2022/05/14 10:41:36;;;;;;;9.80;3.20;;;22.40;1.00;;;;;;5072533;28;20459;-83
2022/05/14 10:44:10;;;;;;;11.23;3.70;;;22.80;1.00;;;;;;5070321;28;20450;-83
2022/05/14 10:46:41;;;;;;;11.40;3.60;;;23.20;1.00;;;;;;5078296;28;20502;-83
2022/05/14 10:49:15;;;;;;;9.27;3.67;;;23.40;1.00;;;;;;5072758;28;21292;-84
2022/05/14 10:51:46;;;;;;;9.97;3.13;;;24.70;1.00;;;;;;5071332;28;20948;-84
2022/05/14 10:54:16;;;;;;;12.80;3.30;;;26.00;1.00;;;;;;5069476;28;21011;-84
2022/05/14 10:56:54;;;;;;;6.63;2.90;;;26.80;1.00;;;;;;5072841;28;20507;-83
2022/05/14 10:59:34;;;;;;;9.93;4.53;;;25.90;1.00;;;;;;5073092;28;20527;-84
2022/05/14 11:02:03;;;;;;;12.07;3.50;;;25.20;1.00;;;;;;5085205;28;20450;-85
2022/05/14 11:04:33;;;;;;;8.33;3.60;;;24.60;1.00;;;;;;5080335;28;20447;-83
2022/05/14 11:07:07;;;;;;;12.57;4.20;;;25.30;1.00;;;;;;5081547;28;21250;-84
2022/05/14 11:09:41;;;;;;;9.80;4.30;;;25.80;1.00;;;;;;5082129;28;20451;-84
2022/05/14 11:12:12;;;;;;;13.30;8.90;;;26.70;1.00;;;;;;5082352;28;22006;-84
2022/05/14 11:14:42;;;;;;;11.77;3.77;;;26.80;1.00;;;;;;5077122;28;21186;-85
2022/05/14 11:17:23;;;;;;;11.90;4.30;;;26.10;1.00;;;;;;5085637;28;20487;-86
2022/05/14 11:19:53;;;;;;;8.40;3.50;;;25.50;1.00;;;;;;5080874;28;20960;-86
2022/05/14 11:22:32;;;;;;;10.93;3.43;;;25.90;1.00;;;;;;5083042;28;20439;-85
2022/05/14 11:25:12;;;;;;;10.77;4.50;;;25.30;1.00;;;;;;5083307;28;20432;-84
2022/05/14 11:27:40;;;;;;;9.50;3.90;;;24.70;1.00;;;;;;5082571;28;20498;-84
2022/05/14 11:30:10;;;;;;;11.63;4.27;;;24.10;1.00;;;;;;5083262;28;20408;-84
2022/05/14 11:32:55;;;;;;;11.67;4.13;;;23.40;1.00;;;;;;5082580;28;20430;-84
2022/05/14 11:35:22;;;;;;;8.50;3.80;;;23.00;1.00;;;;;;5082674;28;20463;-84
2022/05/14 11:37:53;;;;;;;11.23;3.80;;;22.90;1.00;;;;;;5086132;28;20432;-84
2022/05/14 11:40:29;;;;;;;10.43;4.10;;;22.90;1.00;;;;;;5080391;28;20459;-83
2022/05/14 11:43:21;;;;;;;9.00;3.87;;;22.60;1.00;;;;;;5086135;28;20423;-84
2022/05/14 11:45:56;;;;;;;9.13;3.87;;;22.40;1.00;;;;;;5084608;28;20672;-84
2022/05/14 11:48:29;;;;;;;11.20;4.07;;;22.10;1.00;;;;;;5083867;28;20431;-84
2022/05/14 11:51:05;;;;;;;10.93;4.10;;;21.90;1.00;;;;;;5084249;28;20447;-85
2022/05/14 11:53:39;;;;;;;10.73;3.90;;;22.00;1.00;;;;;;5078563;28;20481;-84
2022/05/14 11:56:09;;;;;;;11.47;3.50;;;22.70;1.00;;;;;;5077391;28;20447;-85
2022/05/14 11:58:43;;;;;;;10.60;3.67;;;23.70;1.00;;;;;;5075316;28;20450;-82
2022/05/14 12:01:15;;;;;;;9.60;3.87;;;23.60;1.00;;;;;;5071872;28;20428;-82
2022/05/14 12:03:47;;;;;;;7.20;3.60;;;23.30;1.00;;;;;;5075261;28;20435;-82
2022/05/14 12:06:37;;;;;;;11.73;4.00;;;23.80;1.00;;;;;;5072606;28;21044;-83
2022/05/14 12:09:29;;;;;;;14.10;4.07;;;24.30;1.00;;;;;;5073652;28;21275;-82
2022/05/14 12:12:06;;;;;;;14.67;5.00;;;24.20;1.00;;;;;;5075533;28;20424;-83
2022/05/14 12:14:35;;;;;;;9.43;3.70;;;23.40;1.00;;;;;;5078190;28;20459;-82
2022/05/14 12:17:07;;;;;;;13.80;4.83;;;23.40;1.00;;;;;;5077187;28;20436;-83
2022/05/14 12:19:39;;;;;;;9.53;4.00;;;23.20;1.00;;;;;;5076892;28;20906;-84
2022/05/14 12:22:18;;;;;;;11.90;4.70;;;23.10;1.00;;;;;;5075017;28;20432;-83
2022/05/14 12:25:00;;;;;;;10.67;3.60;;;22.80;1.00;;;;;;5071106;28;20574;-84
2022/05/14 12:27:31;;;;;;;11.00;4.03;;;22.70;1.00;;;;;;5077244;28;20557;-84
2022/05/14 12:30:00;;;;;;;10.30;4.60;;;23.20;1.00;;;;;;5077097;28;20882;-84
2022/05/14 12:35:22;;;;;;;11.10;3.90;;;23.70;1.00;;;;;;5057595;28;20557;-81
2022/05/14 12:37:53;;;;;;;12.90;4.40;;;23.10;1.00;;;;;;5079603;28;20537;-82
2022/05/14 12:40:26;;;;;;;10.60;5.07;;;22.90;1.00;;;;;;5072896;28;20561;-83
2022/05/14 12:42:54;;;;;;;13.07;4.50;;;22.80;1.00;;;;;;5073565;28;21088;-83
2022/05/14 12:45:34;;;;;;;11.80;4.97;;;22.80;1.00;;;;;;5061375;28;20475;-82
2022/05/14 12:48:03;;;;;;;10.07;4.17;;;22.80;1.00;;;;;;5072847;28;20471;-83
2022/05/14 12:50:32;;;;;;;9.57;4.17;;;22.70;1.00;;;;;;5073611;28;20525;-84
2022/05/14 12:53:01;;;;;;;10.20;3.90;;;23.30;1.00;;;;;;5074852;28;20523;-82
2022/05/14 12:55:32;;;;;;;10.97;4.83;;;23.90;1.00;;;;;;5078206;28;20537;-84
2022/05/14 12:58:02;;;;;;;10.37;4.20;;;23.60;1.00;;;;;;5077560;28;20920;-83
2022/05/14 13:00:33;;;;;;;10.07;3.80;;;23.30;1.00;;;;;;5071912;28;20504;-84
2022/05/14 13:03:07;;;;;;;11.80;5.07;;;23.30;1.00;;;;;;5082332;28;20443;-83
2022/05/14 13:05:56;;;;;;;10.40;4.13;;;23.40;1.00;;;;;;5084312;28;20484;-84
2022/05/14 13:08:30;;;;;;;10.30;4.50;;;24.30;1.00;;;;;;5088298;28;20419;-85
2022/05/14 13:11:03;;;;;;;13.80;5.33;;;24.70;1.00;;;;;;5082555;28;20474;-82
2022/05/14 13:13:41;;;;;;;12.70;4.70;;;24.10;1.00;;;;;;5085965;28;21809;-84
2022/05/14 13:16:20;;;;;;;15.50;5.00;;;23.70;1.00;;;;;;5080021;28;20505;-84
2022/05/14 13:19:03;;;;;;;10.07;4.23;;;23.30;1.00;;;;;;5068480;28;20396;-84
2022/05/14 13:21:34;;;;;;;11.30;4.27;;;24.00;1.00;;;;;;5085475;28;20466;-84
2022/05/14 13:24:20;;;;;;;10.23;4.30;;;24.30;1.00;;;;;;5083600;28;20517;-84
2022/05/14 13:26:56;;;;;;;11.17;4.60;;;24.10;1.00;;;;;;5086418;28;20442;-83
2022/05/14 13:29:32;;;;;;;11.63;4.40;;;23.90;1.00;;;;;;5079276;28;20460;-82
2022/05/14 13:32:29;;;;;;;13.30;4.27;;;23.90;1.00;;;;;;5075960;28;20452;-85
2022/05/14 13:38:05;;;;;;;13.13;4.70;;;24.00;1.00;;;;;;5083439;28;20436;-83